Terminal Aerodrome Forecast
Issued by NWS Grand Forks, ND

Home | Current Version | Previous Version | Text Only | Print | Product List | Glossary On
Versions: 1 2 3 4 5 6 7 8 9 10 11 12 13 14 15 16 17 18 19 20 21
000
FTUS43 KFGF 301100
TAFGFK
TAF
KGFK 301120Z 3012/3112 36006KT P6SM SKC
     FM301800 VRB06KT P6SM SCT250
     FM302300 13010KT P6SM BKN250
     FM310900 14008KT P6SM BKN050=

USA.gov is the U.S. government's official web portal to all federal, state and local government web resources and services.